createdAt,value
2017-05-23T00:02:18.932Z,4.68
2017-05-23T00:04:47.493Z,4.94
2017-05-23T00:07:15.818Z,4.60
2017-05-23T00:09:44.108Z,4.92
2017-05-23T00:12:12.690Z,4.52
2017-05-23T00:14:40.972Z,4.70
2017-05-23T00:17:09.254Z,4.48
2017-05-23T00:19:37.921Z,4.86
2017-05-23T00:22:06.201Z,3.96
2017-05-23T00:24:34.685Z,5.08
2017-05-23T00:27:03.372Z,4.70
2017-05-23T00:29:31.688Z,4.72
2017-05-23T00:31:59.200Z,4.88
2017-05-23T00:34:27.716Z,4.18
2017-05-23T00:36:56.035Z,4.92
2017-05-23T00:39:24.372Z,4.38
2017-05-23T00:41:53.029Z,4.68
2017-05-23T00:44:21.386Z,4.50
2017-05-23T00:46:49.673Z,4.38
2017-05-23T00:49:18.274Z,4.78
2017-05-23T00:51:46.557Z,4.60
2017-05-23T00:54:14.903Z,4.42
2017-05-23T00:56:43.419Z,4.38
2017-05-23T00:59:11.779Z,4.60
2017-05-23T01:01:40.136Z,4.58
2017-05-23T01:04:08.735Z,5.26
2017-05-23T01:06:37.223Z,4.68
2017-05-23T01:09:05.511Z,3.94
2017-05-23T01:11:34.191Z,5.00
2017-05-23T01:14:02.474Z,4.56
2017-05-23T01:16:30.751Z,4.84
2017-05-23T01:18:59.431Z,4.90
2017-05-23T01:21:27.725Z,4.72
2017-05-23T01:23:56.017Z,4.60
2017-05-23T01:26:24.660Z,4.60
2017-05-23T01:28:53.144Z,4.66
2017-05-23T01:31:21.433Z,4.70
2017-05-23T01:33:50.111Z,4.98
2017-05-23T01:36:18.388Z,4.04
2017-05-23T01:38:46.672Z,4.32
2017-05-23T01:41:15.332Z,4.86
2017-05-23T01:43:43.617Z,4.72
2017-05-23T01:46:11.901Z,4.90
2017-05-23T01:48:40.412Z,4.70
2017-05-23T01:51:08.839Z,4.60
2017-05-23T01:53:37.144Z,5.06
2017-05-23T01:56:05.817Z,4.68
2017-05-23T01:58:34.113Z,4.22
2017-05-23T02:01:02.394Z,4.82
2017-05-23T02:03:30.963Z,4.12
2017-05-23T02:05:59.332Z,4.42
2017-05-23T02:08:27.679Z,4.88
2017-05-23T02:10:56.287Z,4.96
2017-05-23T02:13:24.767Z,4.90
2017-05-23T02:15:53.057Z,4.70
2017-05-23T02:18:21.581Z,4.78
2017-05-23T02:20:49.865Z,4.70
2017-05-23T02:23:18.136Z,4.04
2017-05-23T02:25:46.766Z,4.88
2017-05-23T02:28:15.259Z,4.62
2017-05-23T02:30:43.549Z,4.60
2017-05-23T02:33:12.208Z,4.22
2017-05-23T02:35:40.483Z,4.40
2017-05-23T02:38:08.766Z,4.86
2017-05-23T02:40:37.344Z,4.60
2017-05-23T02:43:05.633Z,4.80
2017-05-23T02:45:33.936Z,4.34
2017-05-23T02:48:03.090Z,4.70
2017-05-23T02:50:31.379Z,4.18
2017-05-23T02:52:59.866Z,4.52
2017-05-23T02:55:28.391Z,4.68
2017-05-23T02:57:56.677Z,4.54
2017-05-23T03:00:24.973Z,4.42
2017-05-23T03:02:53.564Z,4.80
2017-05-23T03:05:21.844Z,4.64
2017-05-23T03:07:50.142Z,4.70
2017-05-23T03:10:18.800Z,4.44
2017-05-23T03:12:47.092Z,5.06
2017-05-23T03:15:15.567Z,4.86
2017-05-23T03:17:44.085Z,4.64
2017-05-23T03:20:12.374Z,4.88
2017-05-23T03:22:40.790Z,4.76
2017-05-23T03:25:09.495Z,4.76
2017-05-23T03:27:37.965Z,4.58
2017-05-23T03:30:06.239Z,4.62
2017-05-23T03:32:34.961Z,4.84
2017-05-23T03:35:03.371Z,4.96
2017-05-23T03:37:31.685Z,4.54
2017-05-23T03:40:00.379Z,4.98
2017-05-23T03:42:28.672Z,4.16
2017-05-23T03:44:57.144Z,4.54
2017-05-23T03:47:25.710Z,4.26
2017-05-23T03:49:54.090Z,5.14
2017-05-23T03:52:22.576Z,4.62
2017-05-23T03:54:51.247Z,4.60
2017-05-23T03:57:19.734Z,4.68
2017-05-23T03:59:48.035Z,4.88
2017-05-23T04:02:16.541Z,5.18
2017-05-23T04:04:44.980Z,5.40
2017-05-23T04:07:13.257Z,4.12
2017-05-23T04:09:41.944Z,4.38
2017-05-23T04:12:10.232Z,4.18
2017-05-23T04:14:38.532Z,4.22
2017-05-23T04:17:07.171Z,4.28
2017-05-23T04:19:35.482Z,4.78
2017-05-23T04:22:03.935Z,4.60
2017-05-23T04:24:32.614Z,4.54
2017-05-23T04:27:01.100Z,4.90
2017-05-23T04:29:29.396Z,4.44
2017-05-23T04:31:58.057Z,4.40
2017-05-23T04:34:26.353Z,4.56
2017-05-23T04:36:53.877Z,4.26
2017-05-23T04:39:22.485Z,4.80
2017-05-23T04:41:50.830Z,4.66
2017-05-23T04:44:19.241Z,4.60
2017-05-23T04:46:47.743Z,5.44
2017-05-23T04:49:16.014Z,4.80
2017-05-23T04:51:44.298Z,4.64
2017-05-23T04:54:12.132Z,4.52
2017-05-23T04:56:40.618Z,4.70
2017-05-23T04:59:08.912Z,4.78
2017-05-23T05:01:37.581Z,4.52
2017-05-23T05:04:05.940Z,4.80
2017-05-23T05:06:34.233Z,4.54
2017-05-23T05:09:03.027Z,4.94
2017-05-23T05:11:31.333Z,4.50
2017-05-23T05:13:59.640Z,4.56
2017-05-23T05:16:28.273Z,4.54
2017-05-23T05:18:56.564Z,4.36
2017-05-23T05:21:24.856Z,5.12
2017-05-23T05:23:53.506Z,4.18
2017-05-23T05:26:21.792Z,4.98
2017-05-23T05:28:50.143Z,4.30
2017-05-23T05:31:18.734Z,4.26
2017-05-23T05:33:47.030Z,4.34
2017-05-23T05:36:15.322Z,4.48
2017-05-23T05:38:43.855Z,5.30
2017-05-23T05:41:12.143Z,4.40
2017-05-23T05:43:40.448Z,4.26
2017-05-23T05:46:09.017Z,5.08
2017-05-23T05:48:37.318Z,4.70
2017-05-23T05:51:05.608Z,4.78
2017-05-23T05:53:34.260Z,4.38
2017-05-23T05:56:02.572Z,4.68
2017-05-23T05:58:31.000Z,4.04
2017-05-23T06:00:59.515Z,4.54
2017-05-23T06:03:27.804Z,5.26
2017-05-23T06:05:56.107Z,4.54
2017-05-23T06:08:24.628Z,4.54
2017-05-23T06:10:52.992Z,4.28
2017-05-23T06:13:27.410Z,4.86
2017-05-23T06:15:55.710Z,4.40
2017-05-23T06:18:24.457Z,4.34
2017-05-23T06:20:53.080Z,4.30
2017-05-23T06:23:21.396Z,4.56
2017-05-23T06:25:49.694Z,4.56
2017-05-23T06:28:18.499Z,4.48
2017-05-23T06:30:46.840Z,4.90
2017-05-23T06:33:15.147Z,4.54
2017-05-23T06:35:43.736Z,4.02
2017-05-23T06:38:12.028Z,4.94
2017-05-23T06:40:40.308Z,4.68
2017-05-23T06:43:08.876Z,5.06
2017-05-23T06:45:37.251Z,4.70
2017-05-23T06:48:05.545Z,4.68
2017-05-23T06:50:34.068Z,4.24
2017-05-23T06:53:02.368Z,4.70
2017-05-23T06:55:30.875Z,4.32
2017-05-23T06:57:59.585Z,4.42
2017-05-23T07:00:27.912Z,4.18
2017-05-23T07:02:56.212Z,4.48
2017-05-23T07:05:24.896Z,4.70
2017-05-23T07:07:53.187Z,4.32
2017-05-23T07:10:21.481Z,4.76
2017-05-23T07:12:50.059Z,4.28
2017-05-23T07:15:18.349Z,4.30
2017-05-23T07:17:46.645Z,4.52
2017-05-23T07:20:15.281Z,4.44
2017-05-23T07:22:43.570Z,4.16
2017-05-23T07:25:11.865Z,4.82
2017-05-23T07:27:40.501Z,3.88
2017-05-23T07:30:08.776Z,4.56
2017-05-23T07:32:37.069Z,4.06
2017-05-23T07:35:05.594Z,4.24
2017-05-23T07:37:33.899Z,4.44
2017-05-23T07:40:02.192Z,4.56
2017-05-23T07:42:30.796Z,3.90
2017-05-23T07:44:59.136Z,4.20
2017-05-23T07:47:27.427Z,3.96
2017-05-23T07:49:56.032Z,4.32
2017-05-23T07:52:24.335Z,3.94
2017-05-23T07:54:52.788Z,4.38
2017-05-23T07:57:21.447Z,4.16
2017-05-23T07:59:49.743Z,4.12
2017-05-23T08:02:18.038Z,4.02
2017-05-23T08:04:46.721Z,4.40
2017-05-23T08:07:15.068Z,4.22
2017-05-23T08:09:43.364Z,4.22
2017-05-23T08:12:11.872Z,4.20
2017-05-23T08:14:40.212Z,4.44
2017-05-23T08:17:08.707Z,4.30
2017-05-23T08:19:37.381Z,4.42
2017-05-23T08:22:05.689Z,4.16
2017-05-23T08:24:34.013Z,3.80
2017-05-23T08:27:02.827Z,4.18
2017-05-23T08:29:31.307Z,4.10
2017-05-23T08:31:59.614Z,4.10
2017-05-23T08:34:28.255Z,4.18
2017-05-23T08:36:56.552Z,4.38
2017-05-23T08:39:25.020Z,3.86
2017-05-23T08:41:53.534Z,3.84
2017-05-23T08:44:21.823Z,4.38
2017-05-23T08:46:50.132Z,3.68
2017-05-23T08:49:18.738Z,4.52
2017-05-23T08:51:47.025Z,4.02
2017-05-23T08:54:15.502Z,4.10
2017-05-23T08:56:44.081Z,3.72
2017-05-23T08:59:12.465Z,4.62
2017-05-23T09:01:40.771Z,3.98
2017-05-23T09:04:09.417Z,3.94
2017-05-23T09:06:37.927Z,3.80
2017-05-23T09:09:06.221Z,4.14
2017-05-23T09:11:34.855Z,3.68
2017-05-23T09:14:03.168Z,4.34
2017-05-23T09:16:31.495Z,4.12
2017-05-23T09:19:00.100Z,3.98
2017-05-23T09:21:28.569Z,3.70
2017-05-23T09:23:57.003Z,3.62
2017-05-23T09:26:31.185Z,4.40
2017-05-23T09:28:59.485Z,4.06
2017-05-23T09:31:27.778Z,3.68
2017-05-23T09:33:56.530Z,3.96
2017-05-23T09:36:24.823Z,3.40
2017-05-23T09:38:53.109Z,4.28
2017-05-23T09:41:21.757Z,3.86
2017-05-23T09:43:50.055Z,4.26
2017-05-23T09:46:17.579Z,3.72
2017-05-23T09:48:46.159Z,3.60
2017-05-23T09:51:14.461Z,3.64
2017-05-23T09:53:42.762Z,3.50
2017-05-23T09:56:11.399Z,3.56
2017-05-23T09:58:39.696Z,3.32
2017-05-23T10:01:07.225Z,3.50
2017-05-23T10:03:35.829Z,3.56
2017-05-23T10:06:04.121Z,3.50
2017-05-23T10:08:32.426Z,3.40
2017-05-23T10:11:01.064Z,3.30
2017-05-23T10:13:29.381Z,3.28
2017-05-23T10:15:57.714Z,3.52
2017-05-23T10:18:26.368Z,3.28
2017-05-23T10:20:54.680Z,3.18
2017-05-23T10:23:23.009Z,3.50
2017-05-23T10:25:51.760Z,3.58
2017-05-23T10:28:20.059Z,3.50
2017-05-23T10:30:48.365Z,3.40
2017-05-23T10:33:16.967Z,3.46
2017-05-23T10:35:45.248Z,2.56
2017-05-23T10:38:13.534Z,3.10
2017-05-23T10:40:42.047Z,2.90
2017-05-23T10:43:10.498Z,3.02
2017-05-23T10:45:38.789Z,2.94
2017-05-23T10:48:07.452Z,3.20
2017-05-23T10:50:35.742Z,2.80
2017-05-23T10:53:04.034Z,2.90
2017-05-23T10:55:32.700Z,3.20
2017-05-23T10:58:01.181Z,2.88
2017-05-23T11:00:29.487Z,3.04
2017-05-23T11:02:58.146Z,3.04
2017-05-23T11:05:26.483Z,3.12
2017-05-23T11:07:54.889Z,3.32
2017-05-23T11:10:23.586Z,3.20
2017-05-23T11:12:51.949Z,3.10
2017-05-23T11:15:20.251Z,2.90
2017-05-23T11:17:48.865Z,3.04
2017-05-23T11:20:17.189Z,3.76
2017-05-23T11:22:45.602Z,3.00
2017-05-23T11:25:14.197Z,2.74
2017-05-23T11:27:42.494Z,3.20
2017-05-23T11:30:10.826Z,3.50
2017-05-23T11:32:39.401Z,2.90
2017-05-23T11:35:07.690Z,3.00
2017-05-23T11:37:35.989Z,3.40
2017-05-23T11:40:04.732Z,3.08
2017-05-23T11:42:33.042Z,3.30
2017-05-23T11:45:01.337Z,3.02
2017-05-23T11:47:29.973Z,3.34
2017-05-23T11:49:58.646Z,2.80
2017-05-23T11:52:26.942Z,3.72
2017-05-23T11:54:55.621Z,2.38
2017-05-23T11:57:23.930Z,2.64
2017-05-23T11:59:52.232Z,2.90
2017-05-23T12:02:20.848Z,3.16
2017-05-23T12:04:49.165Z,2.90
2017-05-23T12:07:17.460Z,2.90
2017-05-23T12:09:46.093Z,3.24
2017-05-23T12:12:14.564Z,3.14
2017-05-23T12:14:43.250Z,2.94
2017-05-23T12:17:11.931Z,2.92
2017-05-23T12:19:40.232Z,2.84
2017-05-23T12:22:08.532Z,2.98
2017-05-23T12:24:37.195Z,3.10
2017-05-23T12:27:05.520Z,3.58
2017-05-23T12:29:33.920Z,2.90
2017-05-23T12:32:02.615Z,2.64
2017-05-23T12:34:30.917Z,3.14
2017-05-23T12:36:59.257Z,3.56
2017-05-23T12:39:27.867Z,3.52
2017-05-23T12:41:56.225Z,3.52
2017-05-23T12:44:24.523Z,3.50
2017-05-23T12:46:53.115Z,3.40
2017-05-23T12:49:21.455Z,3.68
2017-05-23T12:51:49.856Z,3.12
2017-05-23T12:54:18.546Z,3.30
2017-05-23T12:56:46.849Z,3.08
2017-05-23T12:59:15.159Z,2.98
2017-05-23T13:01:43.792Z,2.94
2017-05-23T13:04:12.160Z,2.98
2017-05-23T13:06:40.536Z,2.60
2017-05-23T13:09:09.240Z,2.60
2017-05-23T13:11:37.553Z,2.72
2017-05-23T13:14:05.867Z,2.80
2017-05-23T13:16:34.454Z,2.92
2017-05-23T13:19:02.735Z,2.60
2017-05-23T13:21:31.031Z,2.42
2017-05-23T13:23:59.701Z,2.52
2017-05-23T13:26:27.990Z,2.56
2017-05-23T13:28:56.290Z,2.72
2017-05-23T13:31:24.844Z,2.52
2017-05-23T13:33:53.141Z,2.74
2017-05-23T13:36:21.442Z,2.66
2017-05-23T13:38:50.184Z,2.30
2017-05-23T13:41:18.647Z,2.54
2017-05-23T13:43:46.937Z,2.70
2017-05-23T13:46:15.549Z,2.90
2017-05-23T13:48:44.095Z,2.50
2017-05-23T13:51:12.401Z,2.40
2017-05-23T13:53:40.918Z,2.20
2017-05-23T13:56:09.211Z,2.68
2017-05-23T13:58:37.493Z,2.58
2017-05-23T14:01:06.089Z,2.36
2017-05-23T14:03:34.401Z,2.38
2017-05-23T14:06:02.734Z,2.38
2017-05-23T14:08:31.329Z,2.50
2017-05-23T14:10:59.634Z,2.72
2017-05-23T14:13:27.950Z,2.58
2017-05-23T14:15:56.467Z,2.48
2017-05-23T14:18:24.861Z,2.30
2017-05-23T14:20:53.167Z,2.36
2017-05-23T14:23:21.851Z,2.42
2017-05-23T14:25:50.123Z,2.54
2017-05-23T14:28:18.468Z,2.30
2017-05-23T14:30:47.093Z,2.44
2017-05-23T14:33:15.553Z,2.64
2017-05-23T14:35:43.858Z,2.44
2017-05-23T14:38:12.481Z,2.42
2017-05-23T14:40:40.771Z,2.04
2017-05-23T14:43:09.068Z,2.26
2017-05-23T14:45:37.722Z,2.56
2017-05-23T14:48:06.023Z,2.16
2017-05-23T14:50:34.339Z,2.20
2017-05-23T14:53:02.950Z,2.30
2017-05-23T14:55:31.437Z,2.02
2017-05-23T14:57:59.726Z,1.90
2017-05-23T15:00:28.394Z,2.14
2017-05-23T15:02:56.753Z,2.32
2017-05-23T15:05:25.040Z,2.06
2017-05-23T15:07:53.637Z,2.08
2017-05-23T15:10:21.943Z,2.12
2017-05-23T15:12:50.251Z,2.08
2017-05-23T15:15:18.828Z,1.90
2017-05-23T15:17:47.120Z,2.12
2017-05-23T15:20:15.407Z,2.26
2017-05-23T15:22:43.907Z,2.06
2017-05-23T15:25:12.208Z,2.08
2017-05-23T15:27:40.503Z,2.00
2017-05-23T15:30:09.165Z,2.18
2017-05-23T15:32:37.474Z,1.94
2017-05-23T15:35:05.756Z,1.80
2017-05-23T15:37:34.395Z,2.16
2017-05-23T15:40:02.680Z,2.12
2017-05-23T15:42:30.978Z,2.16
2017-05-23T15:44:59.490Z,1.86
2017-05-23T15:47:27.910Z,2.14
2017-05-23T15:49:56.218Z,2.20
2017-05-23T15:52:24.774Z,1.60
2017-05-23T15:54:53.133Z,2.00
2017-05-23T15:57:21.445Z,1.98
2017-05-23T15:59:50.105Z,2.00
2017-05-23T16:02:18.416Z,2.06
2017-05-23T16:04:46.732Z,2.16
2017-05-23T16:07:15.347Z,1.80
2017-05-23T16:09:43.637Z,1.92
2017-05-23T16:12:12.085Z,2.18
2017-05-23T16:14:40.787Z,1.80
2017-05-23T16:17:09.212Z,2.10
2017-05-23T16:19:37.519Z,2.24
2017-05-23T16:22:06.154Z,2.28
2017-05-23T16:24:34.444Z,2.30
2017-05-23T16:27:02.748Z,2.24
2017-05-23T16:29:31.273Z,1.80
2017-05-23T16:31:59.637Z,2.00
2017-05-23T16:34:27.990Z,2.10
2017-05-23T16:36:56.593Z,1.80
2017-05-23T16:39:24.906Z,2.48
2017-05-23T16:41:53.358Z,2.10
2017-05-23T16:44:22.067Z,1.90
2017-05-23T16:46:50.351Z,2.10
2017-05-23T16:49:18.802Z,2.18
2017-05-23T16:51:47.489Z,2.00
2017-05-23T16:54:15.968Z,2.02
2017-05-23T16:56:44.256Z,2.20
2017-05-23T16:59:12.783Z,2.10
2017-05-23T17:01:41.078Z,2.00
2017-05-23T17:04:09.379Z,2.34
2017-05-23T17:06:37.951Z,2.06
2017-05-23T17:09:06.443Z,2.02
2017-05-23T17:11:34.757Z,1.84
2017-05-23T17:14:03.595Z,1.90
2017-05-23T17:16:31.885Z,2.20
2017-05-23T17:19:00.202Z,1.62
2017-05-23T17:21:28.821Z,2.18
2017-05-23T17:23:57.122Z,1.90
2017-05-23T17:26:25.479Z,2.20
2017-05-23T17:28:54.093Z,2.16
2017-05-23T17:31:22.394Z,1.90
2017-05-23T17:33:50.689Z,1.98
2017-05-23T17:36:19.326Z,2.08
2017-05-23T17:38:47.634Z,2.22
2017-05-23T17:41:16.142Z,1.94
2017-05-23T17:43:44.991Z,1.86
2017-05-23T17:46:13.450Z,2.22
2017-05-23T17:48:41.754Z,2.26
2017-05-23T17:51:10.633Z,2.12
2017-05-23T17:53:39.124Z,2.16
2017-05-23T17:56:07.426Z,1.84
2017-05-23T17:58:36.067Z,1.88
2017-05-23T18:01:04.547Z,2.00
2017-05-23T18:03:32.879Z,1.84
2017-05-23T18:06:01.708Z,1.80
2017-05-23T18:08:30.188Z,1.60
2017-05-23T18:10:58.493Z,2.06
2017-05-23T18:13:27.154Z,1.90
2017-05-23T18:15:55.638Z,2.10
2017-05-23T18:18:23.988Z,1.86
2017-05-23T18:20:52.582Z,2.08
2017-05-23T18:23:20.888Z,2.02
2017-05-23T18:25:49.198Z,2.12
2017-05-23T18:28:17.812Z,2.00
2017-05-23T18:30:46.297Z,2.28
2017-05-23T18:33:14.607Z,2.66
2017-05-23T18:35:43.256Z,1.88
2017-05-23T18:38:11.753Z,2.22
2017-05-23T18:40:40.068Z,1.98
2017-05-23T18:43:09.330Z,2.16
2017-05-23T18:45:37.659Z,2.60
2017-05-23T18:48:05.958Z,2.10
2017-05-23T18:50:34.561Z,2.22
2017-05-23T18:53:03.045Z,2.44
2017-05-23T18:55:31.366Z,2.24
2017-05-23T18:58:00.017Z,2.46
2017-05-23T19:00:28.435Z,2.54
2017-05-23T19:02:56.761Z,2.66
2017-05-23T19:05:25.440Z,2.42
2017-05-23T19:07:53.816Z,2.72
2017-05-23T19:10:22.148Z,2.50
2017-05-23T19:12:50.982Z,2.54
2017-05-23T19:15:19.294Z,2.46
2017-05-23T19:17:47.867Z,2.76
2017-05-23T19:20:16.636Z,2.40
2017-05-23T19:22:45.113Z,2.50
2017-05-23T19:25:13.448Z,2.48
2017-05-23T19:27:42.066Z,2.70
2017-05-23T19:30:10.370Z,2.90
2017-05-23T19:32:38.682Z,2.66
2017-05-23T19:35:07.318Z,2.70
2017-05-23T19:37:35.634Z,2.74
2017-05-23T19:40:03.928Z,2.48
2017-05-23T19:42:32.779Z,2.60
2017-05-23T19:45:01.670Z,2.98
2017-05-23T19:47:29.981Z,2.86
2017-05-23T19:49:58.613Z,2.66
2017-05-23T19:52:26.934Z,2.68
2017-05-23T19:54:55.257Z,2.38
2017-05-23T19:57:23.887Z,2.82
2017-05-23T19:59:52.215Z,3.00
2017-05-23T20:02:20.687Z,2.42
2017-05-23T20:04:49.306Z,2.22
2017-05-23T20:07:17.609Z,2.44
2017-05-23T20:09:46.082Z,2.88
2017-05-23T20:12:14.811Z,2.80
2017-05-23T20:14:43.139Z,2.50
2017-05-23T20:17:11.463Z,2.52
2017-05-23T20:19:40.179Z,2.68
2017-05-23T20:22:08.510Z,2.38
2017-05-23T20:24:36.841Z,2.58
2017-05-23T20:27:05.421Z,2.18
2017-05-23T20:29:33.793Z,2.36
2017-05-23T20:32:02.205Z,2.50
2017-05-23T20:34:30.894Z,2.36
2017-05-23T20:36:59.351Z,2.20
2017-05-23T20:39:27.833Z,2.24
2017-05-23T20:41:55.681Z,2.12
2017-05-23T20:44:24.102Z,2.46
2017-05-23T20:46:53.250Z,2.50
2017-05-23T20:49:21.938Z,2.40
2017-05-23T20:51:50.628Z,2.30
2017-05-23T20:54:18.972Z,2.32
2017-05-23T20:56:47.592Z,2.50
2017-05-23T20:59:15.938Z,2.32
2017-05-23T21:01:44.234Z,2.34
2017-05-23T21:04:12.828Z,1.98
2017-05-23T21:06:41.125Z,3.02
2017-05-23T21:09:09.428Z,1.74
2017-05-23T21:11:38.124Z,2.04
2017-05-23T21:14:06.444Z,2.26
2017-05-23T21:16:34.795Z,2.00
2017-05-23T21:19:03.356Z,1.86
2017-05-23T21:21:31.789Z,2.16
2017-05-23T21:24:00.138Z,1.88
2017-05-23T21:26:28.761Z,1.82
2017-05-23T21:28:57.053Z,1.86
2017-05-23T21:31:25.357Z,2.02
2017-05-23T21:33:54.049Z,1.98
2017-05-23T21:36:22.383Z,1.90
2017-05-23T21:38:50.686Z,2.10
2017-05-23T21:41:19.223Z,2.36
2017-05-23T21:43:47.599Z,1.88
2017-05-23T21:46:15.905Z,1.92
2017-05-23T21:48:44.658Z,1.70
2017-05-23T21:51:12.940Z,2.02
2017-05-23T21:53:41.429Z,2.46
2017-05-23T21:56:10.116Z,1.96
2017-05-23T21:58:38.396Z,1.90
2017-05-23T22:01:06.693Z,1.90
2017-05-23T22:03:35.340Z,1.76
2017-05-23T22:06:03.637Z,1.84
2017-05-23T22:08:31.931Z,2.02
2017-05-23T22:11:00.591Z,2.22
2017-05-23T22:13:29.087Z,2.14
2017-05-23T22:15:57.394Z,1.90
2017-05-23T22:18:26.053Z,1.78
2017-05-23T22:20:54.352Z,2.00
2017-05-23T22:23:22.651Z,1.86
2017-05-23T22:25:51.184Z,1.70
2017-05-23T22:28:19.534Z,2.22
2017-05-23T22:30:48.024Z,1.92
2017-05-23T22:33:16.703Z,1.92
2017-05-23T22:35:44.995Z,1.72
2017-05-23T22:38:13.310Z,1.68
2017-05-23T22:40:41.949Z,1.90
2017-05-23T22:43:10.243Z,1.56
2017-05-23T22:45:37.776Z,1.70
2017-05-23T22:48:06.360Z,1.92
2017-05-23T22:50:34.702Z,1.66
2017-05-23T22:53:02.989Z,2.08
2017-05-23T22:55:31.594Z,1.90
2017-05-23T22:58:00.079Z,1.62
2017-05-23T23:00:28.360Z,1.70
2017-05-23T23:02:57.036Z,1.94
2017-05-23T23:05:25.309Z,1.60
2017-05-23T23:07:53.583Z,1.60
2017-05-23T23:10:22.286Z,1.70
2017-05-23T23:12:50.576Z,1.74
2017-05-23T23:15:18.857Z,1.76
2017-05-23T23:17:47.551Z,2.08
2017-05-23T23:20:15.885Z,1.58
2017-05-23T23:22:44.177Z,1.76
2017-05-23T23:25:12.696Z,1.56
2017-05-23T23:27:41.049Z,1.70
2017-05-23T23:30:09.332Z,1.84
2017-05-23T23:32:38.006Z,1.90
2017-05-23T23:35:06.297Z,1.74
2017-05-23T23:37:34.586Z,2.06
2017-05-23T23:40:03.278Z,1.70
2017-05-23T23:42:31.553Z,1.48
2017-05-23T23:44:59.842Z,1.76
2017-05-23T23:47:28.407Z,1.80
2017-05-23T23:49:56.691Z,1.62
2017-05-23T23:52:25.220Z,1.94
2017-05-23T23:54:53.748Z,1.68
2017-05-23T23:57:22.043Z,1.64
2017-05-23T23:59:50.337Z,1.68
